Time;durP1;ratioP1;P1;durP2;ratioP2;P2;SDS_P1;SDS_P2;PMS_P1;PMS_P2;Temp;Humidity;BMP_temperature;BMP_pressure;BME280_temperature;BME280_humidity;BME280_pressure;Samples;Min_cycle;Max_cycle;Signal;HPM_P1;HPM_P2
2023/04/06 00:00:47;;;;;;;6.22;3.33;;;;;;;12.62;36.86;96317.97;5039815;28;20063;-30
2023/04/06 00:03:13;;;;;;;4.90;2.67;;;;;;;12.75;36.70;96321.38;5041221;28;20031;-29
2023/04/06 00:05:38;;;;;;;4.63;3.00;;;;;;;12.74;36.18;96325.31;5034388;28;20022;-30
2023/04/06 00:08:04;;;;;;;7.38;2.83;;;;;;;12.69;37.03;96315.00;5032511;28;20078;-29
2023/04/06 00:10:29;;;;;;;7.15;3.30;;;;;;;12.49;36.78;96315.28;5041667;28;20025;-31
2023/04/06 00:12:56;;;;;;;5.93;2.95;;;;;;;12.59;37.20;96325.06;5033729;28;20029;-29
2023/04/06 00:15:22;;;;;;;5.82;3.30;;;;;;;12.70;36.59;96318.50;5033908;28;20059;-30
2023/04/06 00:17:47;;;;;;;6.10;3.00;;;;;;;12.64;37.10;96322.97;5038008;28;20045;-30
2023/04/06 00:20:13;;;;;;;6.05;3.22;;;;;;;12.76;36.39;96322.16;5040885;28;20469;-31
2023/04/06 00:22:38;;;;;;;6.38;3.25;;;;;;;12.64;36.99;96321.00;5033647;28;20029;-29
2023/04/06 00:25:04;;;;;;;5.90;3.17;;;;;;;12.57;36.54;96321.28;5032690;28;20028;-29
2023/04/06 00:27:29;;;;;;;6.13;3.60;;;;;;;12.46;37.17;96324.34;5033859;28;20481;-29
2023/04/06 00:29:55;;;;;;;6.03;3.40;;;;;;;12.59;36.76;96322.34;5048297;28;20027;-29
2023/04/06 00:32:20;;;;;;;4.65;3.00;;;;;;;12.50;37.29;96324.97;5037800;28;20017;-30
2023/04/06 00:34:46;;;;;;;5.65;3.67;;;;;;;12.67;37.17;96319.38;5036601;28;20420;-29
2023/04/06 00:37:12;;;;;;;5.50;3.20;;;;;;;12.70;36.70;96324.69;5033850;28;20472;-29
2023/04/06 00:39:37;;;;;;;7.07;2.88;;;;;;;12.56;37.01;96328.66;5034642;28;20075;-30
2023/04/06 00:42:11;;;;;;;11.20;4.15;;;;;;;12.70;36.57;96326.66;5037928;28;20074;-29
2023/04/06 00:44:37;;;;;;;4.75;2.72;;;;;;;12.63;37.16;96324.16;5037696;28;20037;-29
2023/04/06 00:47:02;;;;;;;7.60;2.92;;;;;;;12.47;37.30;96323.16;5052074;28;20025;-30
2023/04/06 00:49:28;;;;;;;4.03;2.90;;;;;;;12.44;36.86;96318.59;5044930;28;20111;-29
2023/04/06 00:51:53;;;;;;;10.48;3.45;;;;;;;12.54;37.15;96322.16;5042843;28;20042;-29
2023/04/06 00:54:19;;;;;;;7.28;2.97;;;;;;;12.64;36.63;96320.25;5038898;28;20028;-29
2023/04/06 00:56:44;;;;;;;5.32;3.33;;;;;;;12.46;36.71;96321.63;5037586;28;20048;-29
2023/04/06 00:59:11;;;;;;;4.30;2.90;;;;;;;12.70;36.38;96318.50;5037326;28;20064;-30
2023/04/06 01:01:37;;;;;;;5.50;3.67;;;;;;;12.62;36.70;96317.22;5039686;28;20049;-29
2023/04/06 01:04:02;;;;;;;5.07;3.38;;;;;;;12.58;36.66;96312.66;5038585;28;20432;-29
2023/04/06 01:06:28;;;;;;;9.68;3.13;;;;;;;12.49;36.89;96314.53;5042846;28;20068;-30
2023/04/06 01:08:54;;;;;;;7.78;3.40;;;;;;;12.64;36.48;96312.09;5037155;28;20033;-29
2023/04/06 01:11:19;;;;;;;6.03;3.10;;;;;;;12.40;37.33;96307.06;5044447;28;20100;-29
2023/04/06 01:13:45;;;;;;;7.63;3.20;;;;;;;12.52;37.11;96310.94;5037293;28;20022;-29
2023/04/06 01:16:11;;;;;;;6.20;2.78;;;;;;;12.51;36.84;96302.03;5037434;28;20021;-31
2023/04/06 01:18:38;;;;;;;5.15;3.05;;;;;;;12.35;36.97;96307.66;5044758;28;20108;-29
2023/04/06 01:21:03;;;;;;;6.00;3.03;;;;;;;12.56;36.53;96308.88;5040131;28;20465;-29
2023/04/06 01:23:29;;;;;;;7.90;3.20;;;;;;;12.44;37.07;96310.44;5041150;28;20025;-29
2023/04/06 01:25:54;;;;;;;6.00;3.05;;;;;;;12.53;36.33;96307.78;5036727;28;20021;-29
2023/04/06 01:28:20;;;;;;;6.35;2.95;;;;;;;12.41;36.56;96300.44;5041553;28;20051;-30
2023/04/06 01:30:46;;;;;;;6.07;3.47;;;;;;;12.32;36.96;96303.09;5039434;28;20485;-31
2023/04/06 01:33:11;;;;;;;5.13;3.22;;;;;;;12.46;36.54;96310.75;5039294;28;20468;-29
2023/04/06 01:35:37;;;;;;;5.40;3.08;;;;;;;12.39;36.74;96304.78;5048369;28;20131;-30
2023/04/06 01:38:02;;;;;;;6.47;3.28;;;;;;;12.46;37.04;96310.00;5043978;28;20111;-30
2023/04/06 01:40:28;;;;;;;5.82;3.40;;;;;;;12.33;36.94;96310.03;5036740;28;20159;-30
2023/04/06 01:42:54;;;;;;;4.55;3.17;;;;;;;12.53;36.79;96305.06;5036584;28;20044;-30
2023/04/06 01:45:19;;;;;;;5.10;2.47;;;;;;;12.63;36.54;96305.13;5036993;28;20021;-29
2023/04/06 01:47:45;;;;;;;7.43;3.03;;;;;;;12.39;36.33;96296.63;5036611;28;20086;-29
2023/04/06 01:50:10;;;;;;;5.07;2.97;;;;;;;12.51;36.68;96306.69;5036524;28;20420;-29
2023/04/06 01:52:37;;;;;;;4.32;2.88;;;;;;;12.33;36.92;96307.31;5050257;28;20017;-29
2023/04/06 01:55:03;;;;;;;4.10;3.05;;;;;;;12.39;36.57;96293.91;5043416;28;20017;-29
2023/04/06 01:57:28;;;;;;;7.95;2.92;;;;;;;12.63;36.26;96305.13;5036458;28;20033;-29
2023/04/06 01:59:54;;;;;;;4.75;2.92;;;;;;;12.39;36.09;96310.97;5036162;28;20024;-31
2023/04/06 02:02:19;;;;;;;6.03;2.83;;;;;;;12.26;36.85;96295.91;5036260;28;20052;-30
2023/04/06 02:04:45;;;;;;;5.55;2.63;;;;;;;12.45;36.65;96300.31;5028920;28;20017;-29
2023/04/06 02:07:10;;;;;;;5.07;2.40;;;;;;;12.29;36.77;96298.50;5042179;28;20132;-31
2023/04/06 02:09:36;;;;;;;5.53;2.92;;;;;;;12.32;36.43;96294.16;5037163;28;20021;-29
2023/04/06 02:12:02;;;;;;;5.13;2.80;;;;;;;12.21;36.83;96299.97;5035791;28;20063;-30
2023/04/06 02:14:27;;;;;;;6.72;3.00;;;;;;;12.36;36.61;96301.00;5035792;28;20082;-30
2023/04/06 02:16:53;;;;;;;4.15;2.55;;;;;;;12.38;36.40;96304.03;5036454;28;20028;-29
2023/04/06 02:19:19;;;;;;;4.65;2.95;;;;;;;12.42;36.37;96312.84;5035820;28;20112;-29
2023/04/06 02:21:44;;;;;;;5.10;3.10;;;;;;;12.41;35.98;96305.88;5035956;28;20045;-32
2023/04/06 02:24:09;;;;;;;4.40;2.83;;;;;;;12.49;35.28;96301.69;5043085;28;20032;-29
2023/04/06 02:26:35;;;;;;;6.05;2.53;;;;;;;12.44;35.39;96312.41;5042314;28;20017;-29
2023/04/06 02:29:01;;;;;;;4.40;2.75;;;;;;;12.35;35.42;96304.94;5039712;28;20017;-29
2023/04/06 02:31:27;;;;;;;6.32;2.78;;;;;;;12.40;35.35;96300.88;5035507;28;20049;-29
2023/04/06 02:33:53;;;;;;;5.70;2.58;;;;;;;12.34;35.01;96314.28;5034496;28;20433;-29
2023/04/06 02:36:18;;;;;;;5.50;2.88;;;;;;;12.43;34.83;96305.44;5038557;28;20021;-29
2023/04/06 02:38:44;;;;;;;4.25;2.40;;;;;;;12.40;34.54;96307.06;5038287;28;20040;-29
2023/04/06 02:41:09;;;;;;;5.30;3.03;;;;;;;12.39;34.31;96302.81;5042942;28;20028;-29
2023/04/06 02:43:35;;;;;;;4.18;2.45;;;;;;;12.26;34.39;96304.81;5035703;28;20021;-30
2023/04/06 02:46:00;;;;;;;4.03;2.70;;;;;;;12.30;34.12;96312.88;5035105;28;20036;-29
2023/04/06 02:48:26;;;;;;;5.28;2.45;;;;;;;12.46;34.54;96315.44;5043440;28;20384;-29
2023/04/06 02:50:51;;;;;;;4.22;2.20;;;;;;;12.38;34.18;96314.91;5035302;28;20044;-29
2023/04/06 02:53:17;;;;;;;3.78;2.20;;;;;;;12.45;33.83;96305.75;5049311;28;20028;-29
2023/04/06 02:55:42;;;;;;;3.55;2.25;;;;;;;12.27;34.49;96311.03;5038846;28;20048;-30
2023/04/06 02:58:08;;;;;;;6.60;2.45;;;;;;;12.21;34.24;96313.56;5038412;28;20018;-30
2023/04/06 03:00:33;;;;;;;5.05;2.40;;;;;;;12.26;34.54;96315.69;5034824;28;20024;-29
2023/04/06 03:02:59;;;;;;;4.28;2.17;;;;;;;12.28;34.35;96316.03;5034554;28;20068;-29
2023/04/06 03:05:24;;;;;;;5.00;2.83;;;;;;;12.38;33.88;96319.59;5035474;28;20519;-29
2023/04/06 03:07:50;;;;;;;4.85;2.42;;;;;;;12.38;33.83;96323.06;5033707;28;20075;-29
2023/04/06 03:10:15;;;;;;;3.75;2.25;;;;;;;12.52;33.53;96325.31;5041149;28;20072;-30
2023/04/06 03:12:41;;;;;;;4.10;2.17;;;;;;;12.15;34.04;96318.78;5042266;28;20025;-29
2023/04/06 03:15:08;;;;;;;5.30;2.40;;;;;;;12.20;33.50;96325.63;5034863;28;20469;-30
2023/04/06 03:17:33;;;;;;;3.50;2.10;;;;;;;12.14;34.17;96319.22;5034975;28;20159;-29
2023/04/06 03:19:59;;;;;;;5.07;2.20;;;;;;;12.43;33.68;96317.06;5035046;28;20540;-29
2023/04/06 03:22:24;;;;;;;3.53;2.00;;;;;;;12.40;33.52;96328.81;5034808;28;20025;-30
2023/04/06 03:24:50;;;;;;;3.67;2.33;;;;;;;12.27;33.65;96325.38;5035365;28;20029;-29
2023/04/06 03:27:15;;;;;;;6.85;2.38;;;;;;;12.30;32.73;96329.94;5041500;28;20057;-30
2023/04/06 03:29:41;;;;;;;4.57;2.28;;;;;;;12.29;33.38;96333.88;5041472;28;20033;-29
2023/04/06 03:32:06;;;;;;;4.22;2.10;;;;;;;12.34;33.46;96332.56;5035129;28;20025;-30
2023/04/06 03:34:32;;;;;;;2.97;2.08;;;;;;;12.40;33.02;96333.50;5041444;28;20036;-29
2023/04/06 03:36:57;;;;;;;4.45;1.83;;;;;;;12.32;32.95;96333.00;5034624;28;20030;-30
2023/04/06 03:39:23;;;;;;;7.80;2.60;;;;;;;12.35;33.22;96336.81;5034490;28;20029;-29
2023/04/06 03:41:48;;;;;;;4.50;2.22;;;;;;;12.12;33.20;96346.84;5041021;28;20071;-29
2023/04/06 03:44:14;;;;;;;4.13;2.13;;;;;;;12.41;32.95;96343.94;5036281;28;20075;-29
2023/04/06 03:46:40;;;;;;;4.13;2.30;;;;;;;12.41;32.56;96341.22;5039767;28;20032;-30
2023/04/06 03:49:05;;;;;;;4.82;2.50;;;;;;;12.32;32.34;96354.00;5034232;28;20100;-29
2023/04/06 03:51:31;;;;;;;4.35;2.05;;;;;;;12.22;32.62;96350.44;5036965;28;20048;-29
2023/04/06 03:53:56;;;;;;;4.60;2.10;;;;;;;12.11;32.71;96344.59;5038378;28;20022;-30
2023/04/06 03:56:21;;;;;;;7.00;2.35;;;;;;;12.21;32.37;96343.47;5034245;28;20033;-29
2023/04/06 03:58:50;;;;;;;7.30;2.42;;;;;;;12.22;32.53;96345.75;5039784;28;20378;-29
2023/04/06 04:01:17;;;;;;;6.32;2.00;;;;;;;12.26;32.33;96348.34;5041241;28;20044;-32
2023/04/06 04:03:43;;;;;;;5.50;2.47;;;;;;;12.09;32.96;96347.72;5034225;28;20484;-29
2023/04/06 04:06:08;;;;;;;4.75;2.60;;;;;;;12.29;32.38;96350.19;5034040;28;20030;-30
2023/04/06 04:08:35;;;;;;;4.18;2.30;;;;;;;12.17;32.68;96343.56;5034386;28;20111;-31
2023/04/06 04:11:00;;;;;;;6.50;3.13;;;;;;;12.14;32.83;96349.13;5041578;28;20025;-30
2023/04/06 04:13:26;;;;;;;6.93;2.78;;;;;;;12.12;32.45;96340.63;5033790;28;20021;-29
2023/04/06 04:15:52;;;;;;;6.60;2.60;;;;;;;12.31;32.53;96341.59;5041253;28;20400;-30
2023/04/06 04:18:18;;;;;;;3.95;2.30;;;;;;;12.17;32.70;96350.97;5033201;28;20142;-29
2023/04/06 04:20:43;;;;;;;5.43;2.28;;;;;;;12.36;32.57;96349.97;5034253;28;20191;-30
2023/04/06 04:23:09;;;;;;;5.07;2.55;;;;;;;12.28;32.35;96348.66;5033974;28;20108;-29
2023/04/06 04:25:34;;;;;;;3.88;2.30;;;;;;;12.12;32.99;96346.06;5033540;28;20032;-32
2023/04/06 04:28:00;;;;;;;4.63;2.53;;;;;;;12.19;32.69;96340.41;5036180;28;20019;-31
2023/04/06 04:30:25;;;;;;;5.65;2.80;;;;;;;12.11;32.50;96344.59;5042543;28;20111;-29
2023/04/06 04:32:51;;;;;;;5.88;2.92;;;;;;;12.17;32.83;96340.09;5035904;28;20037;-28
2023/04/06 04:35:16;;;;;;;5.75;2.30;;;;;;;12.11;32.82;96347.31;5033376;28;20037;-29
2023/04/06 04:37:42;;;;;;;5.28;2.70;;;;;;;12.14;32.30;96360.75;5033487;28;20025;-30
2023/04/06 04:40:08;;;;;;;6.50;3.53;;;;;;;12.02;32.60;96349.91;5033750;28;20025;-30
2023/04/06 04:42:34;;;;;;;6.40;2.55;;;;;;;12.12;32.66;96356.94;5033408;28;20025;-29
2023/04/06 04:44:59;;;;;;;5.78;2.33;;;;;;;12.12;32.64;96355.00;5040403;28;20036;-31
2023/04/06 04:47:25;;;;;;;5.28;2.60;;;;;;;11.97;32.84;96353.94;5041106;28;20021;-30
2023/04/06 04:49:50;;;;;;;7.22;2.90;;;;;;;11.83;32.68;96357.13;5033493;28;20027;-30
2023/04/06 04:52:16;;;;;;;5.88;2.30;;;;;;;11.85;32.73;96355.47;5040629;28;20028;-30
2023/04/06 04:54:42;;;;;;;3.67;2.58;;;;;;;11.77;33.21;96348.72;5032319;28;20353;-29
2023/04/06 04:57:07;;;;;;;4.15;2.33;;;;;;;11.94;32.57;96362.22;5033445;28;20096;-30
2023/04/06 04:59:34;;;;;;;5.55;3.10;;;;;;;11.74;33.05;96362.41;5035675;28;20120;-31
2023/04/06 05:02:00;;;;;;;5.68;2.60;;;;;;;11.87;32.84;96363.94;5038250;28;20045;-30
2023/04/06 05:04:25;;;;;;;4.82;2.65;;;;;;;11.62;33.47;96369.34;5039320;28;20083;-31
2023/04/06 05:07:02;;;;;;;6.22;2.67;;;;;;;11.81;33.44;96370.38;5033093;28;20091;-29
2023/04/06 05:09:30;;;;;;;5.30;2.28;;;;;;;11.75;33.29;96359.28;5033553;28;20018;-30
2023/04/06 05:11:56;;;;;;;5.40;2.30;;;;;;;11.72;33.59;96357.41;5040138;28;20461;-30
2023/04/06 05:14:21;;;;;;;4.60;2.20;;;;;;;11.91;33.33;96363.06;5033440;28;20028;-30
2023/04/06 05:16:47;;;;;;;4.70;2.15;;;;;;;11.67;33.44;96371.53;5040625;28;20482;-30
2023/04/06 05:19:12;;;;;;;5.00;2.55;;;;;;;11.74;33.10;96376.75;5037966;28;20353;-31
2023/04/06 05:21:38;;;;;;;7.20;2.63;;;;;;;11.72;33.20;96379.16;5035829;28;20036;-30
2023/04/06 05:24:03;;;;;;;7.43;2.80;;;;;;;11.90;32.92;96373.19;5033325;28;20024;-30
2023/04/06 05:26:29;;;;;;;4.10;2.40;;;;;;;11.95;33.24;96378.09;5035591;28;20488;-29
2023/04/06 05:28:55;;;;;;;5.38;2.83;;;;;;;11.69;33.36;96380.00;5044774;28;20584;-32
2023/04/06 05:31:21;;;;;;;5.45;2.80;;;;;;;11.95;32.96;96375.38;5036814;28;20013;-29
2023/04/06 05:33:46;;;;;;;5.13;3.03;;;;;;;11.98;33.05;96379.16;5050658;28;20063;-32
2023/04/06 05:36:12;;;;;;;5.28;2.50;;;;;;;12.02;32.89;96379.81;5044218;28;20056;-29
2023/04/06 05:38:37;;;;;;;5.57;2.15;;;;;;;11.75;33.17;96375.56;5036650;28;20060;-30
2023/04/06 05:41:03;;;;;;;5.35;2.47;;;;;;;11.81;33.06;96373.84;5036740;28;20036;-30
2023/04/06 05:43:28;;;;;;;3.90;2.33;;;;;;;11.90;33.25;96367.75;5036617;28;20481;-31
2023/04/06 05:45:54;;;;;;;6.20;2.17;;;;;;;11.65;33.21;96378.59;5036637;28;20036;-31
2023/04/06 05:48:19;;;;;;;7.03;2.58;;;;;;;11.62;33.73;96374.78;5038151;28;20024;-30
2023/04/06 05:50:49;;;;;;;5.10;2.60;;;;;;;11.58;33.63;96379.56;5042074;28;20025;-31
2023/04/06 05:53:14;;;;;;;4.55;2.72;;;;;;;11.89;33.51;96374.38;5037050;28;20032;-32
2023/04/06 05:55:40;;;;;;;3.70;2.33;;;;;;;11.73;33.22;96374.47;5036518;28;20017;-31
2023/04/06 05:58:05;;;;;;;5.63;2.28;;;;;;;11.97;33.13;96362.09;5036259;28;20021;-30
2023/04/06 06:00:31;;;;;;;6.03;2.30;;;;;;;12.02;32.89;96375.13;5036426;28;20032;-29
2023/04/06 06:02:56;;;;;;;5.13;2.08;;;;;;;12.19;32.92;96376.53;5016416;28;20034;-29
2023/04/06 06:05:22;;;;;;;4.93;2.13;;;;;;;12.02;33.12;96379.81;5023618;28;20408;-29
2023/04/06 06:07:47;;;;;;;5.43;2.08;;;;;;;12.00;32.74;96393.81;5019435;28;20488;-29
2023/04/06 06:10:13;;;;;;;4.70;3.13;;;;;;;12.28;32.49;96400.31;5027227;28;20091;-29
2023/04/06 06:12:38;;;;;;;5.13;2.35;;;;;;;12.31;32.78;96402.19;5017494;28;20485;-29
2023/04/06 06:15:05;;;;;;;6.03;2.10;;;;;;;12.36;32.37;96409.78;5015971;28;20028;-29
2023/04/06 06:17:30;;;;;;;4.57;2.50;;;;;;;12.17;32.79;96413.50;5015994;28;20026;-31
2023/04/06 06:19:56;;;;;;;6.15;3.00;;;;;;;12.21;32.87;96408.72;5022750;28;20419;-31
2023/04/06 06:22:21;;;;;;;6.15;2.22;;;;;;;12.29;33.47;96410.00;5023161;28;20029;-29
2023/04/06 06:24:47;;;;;;;3.53;2.03;;;;;;;12.38;32.85;96407.38;5023310;28;20384;-29
2023/04/06 06:27:12;;;;;;;4.53;2.00;;;;;;;12.21;32.96;96414.16;5016159;28;20377;-29
2023/04/06 06:29:38;;;;;;;6.55;2.40;;;;;;;12.26;33.14;96400.00;5023192;28;20022;-29
2023/04/06 06:32:04;;;;;;;5.97;2.20;;;;;;;12.27;32.77;96409.69;5016161;28;20048;-29
2023/04/06 06:34:29;;;;;;;5.05;2.20;;;;;;;12.40;32.52;96415.09;5022618;28;20028;-29
2023/04/06 06:36:55;;;;;;;4.57;2.30;;;;;;;12.15;33.14;96410.44;5014804;28;20105;-29
2023/04/06 06:39:20;;;;;;;4.85;2.55;;;;;;;12.24;32.97;96408.59;5022939;28;20045;-29
2023/04/06 06:41:46;;;;;;;6.40;2.20;;;;;;;12.13;33.05;96413.59;5023087;28;20104;-30
2023/04/06 06:44:12;;;;;;;5.03;2.08;;;;;;;12.35;33.00;96419.16;5015854;28;20060;-29
2023/04/06 06:46:37;;;;;;;3.95;2.08;;;;;;;12.19;33.26;96411.13;5015753;28;20038;-29
2023/04/06 06:49:03;;;;;;;4.13;2.00;;;;;;;12.21;33.06;96408.72;5015432;28;20018;-30
2023/04/06 06:51:28;;;;;;;3.67;1.90;;;;;;;12.29;32.90;96410.00;5025505;28;20100;-30
2023/04/06 06:53:54;;;;;;;5.68;2.13;;;;;;;12.47;32.60;96421.09;5025863;28;20049;-29
2023/04/06 06:56:19;;;;;;;6.75;2.50;;;;;;;12.45;32.41;96417.28;5016975;28;20029;-31
2023/04/06 06:58:45;;;;;;;4.07;1.80;;;;;;;12.55;32.67;96430.53;5015485;28;20029;-31
2023/04/06 07:01:12;;;;;;;3.97;2.22;;;;;;;12.52;32.60;96417.78;5020452;28;20147;-29
2023/04/06 07:03:37;;;;;;;4.70;2.40;;;;;;;12.35;32.64;96432.75;5035321;28;20108;-30
2023/04/06 07:06:03;;;;;;;8.88;2.47;;;;;;;12.30;32.35;96432.53;5034969;28;20022;-29
2023/04/06 07:08:28;;;;;;;4.57;1.90;;;;;;;12.54;32.56;96430.97;5042452;28;20469;-30
2023/04/06 07:10:56;;;;;;;3.50;2.17;;;;;;;12.37;32.87;96427.59;5034784;28;20033;-30
2023/04/06 07:13:26;;;;;;;4.43;2.50;;;;;;;12.59;32.70;96444.78;5034878;28;20101;-30
2023/04/06 07:15:52;;;;;;;5.35;2.10;;;;;;;12.52;32.76;96445.00;5041879;28;20104;-29
2023/04/06 07:18:20;;;;;;;4.65;2.00;;;;;;;12.72;32.47;96452.16;5034696;28;20100;-29
2023/04/06 07:20:46;;;;;;;4.40;2.22;;;;;;;12.68;32.80;96452.25;5035072;28;20021;-31
2023/04/06 07:23:11;;;;;;;5.65;1.90;;;;;;;12.54;32.18;96458.91;5038855;28;20017;-29
2023/04/06 07:25:37;;;;;;;5.22;2.20;;;;;;;12.74;32.38;96452.44;5037766;28;20025;-29
2023/04/06 07:28:03;;;;;;;3.25;1.92;;;;;;;12.86;32.37;96448.94;5044401;28;20437;-32
2023/04/06 07:30:29;;;;;;;4.55;2.10;;;;;;;12.77;32.26;96459.75;5039734;28;20036;-29
2023/04/06 07:32:58;;;;;;;5.05;2.00;;;;;;;12.61;32.32;96462.63;5034594;28;20033;-29
2023/04/06 07:35:26;;;;;;;5.35;1.85;;;;;;;12.47;32.65;96447.53;5040882;28;20059;-30
2023/04/06 07:37:55;;;;;;;6.28;2.80;;;;;;;12.59;33.01;96465.78;5032736;28;20029;-30
2023/04/06 07:40:21;;;;;;;4.18;2.00;;;;;;;12.92;32.14;96456.09;5034335;28;20033;-29
2023/04/06 07:42:47;;;;;;;3.15;2.00;;;;;;;12.82;32.17;96453.75;5040573;28;20106;-29
2023/04/06 07:45:13;;;;;;;4.18;2.45;;;;;;;12.80;32.34;96459.63;5035429;28;20029;-30
2023/04/06 07:47:38;;;;;;;3.00;2.00;;;;;;;12.75;32.54;96454.72;5032708;28;20381;-31
2023/04/06 07:50:05;;;;;;;4.75;2.33;;;;;;;12.92;32.74;96458.06;5033743;28;20017;-30
2023/04/06 07:52:31;;;;;;;4.70;2.33;;;;;;;12.86;32.55;96452.41;5041693;28;20069;-30
2023/04/06 07:54:58;;;;;;;5.85;2.40;;;;;;;12.98;32.21;96445.44;5034030;28;20021;-30
2023/04/06 07:57:23;;;;;;;5.53;2.90;;;;;;;12.89;32.85;96445.34;5041419;28;20461;-29
2023/04/06 07:59:49;;;;;;;5.95;2.75;;;;;;;13.00;32.47;96451.16;5041236;28;20109;-30
2023/04/06 08:02:14;;;;;;;5.82;3.33;;;;;;;13.06;32.81;96443.22;5033617;28;20053;-30
2023/04/06 08:04:40;;;;;;;4.75;2.70;;;;;;;13.17;33.00;96449.84;5034563;28;20021;-30
2023/04/06 08:07:06;;;;;;;4.57;2.58;;;;;;;13.13;32.65;96449.16;5034358;28;20048;-30
2023/04/06 08:09:32;;;;;;;4.03;2.22;;;;;;;12.86;33.01;96441.53;5034798;28;20096;-30
2023/04/06 08:11:57;;;;;;;5.07;2.22;;;;;;;13.09;32.46;96443.09;5044338;28;20524;-30
2023/04/06 08:14:23;;;;;;;4.65;2.20;;;;;;;13.09;32.70;96445.81;5035816;28;20428;-29
2023/04/06 08:16:48;;;;;;;6.38;2.75;;;;;;;13.29;32.59;96446.28;5033538;28;20056;-30
2023/04/06 08:19:16;;;;;;;5.65;2.17;;;;;;;13.27;32.21;96459.59;5034022;28;20027;-30
2023/04/06 08:21:43;;;;;;;4.15;1.98;;;;;;;13.28;32.20;96446.72;5034232;28;20056;-29
2023/04/06 08:24:08;;;;;;;7.68;2.60;;;;;;;13.30;31.82;96461.44;5033721;28;20018;-30
2023/04/06 08:26:34;;;;;;;5.63;2.70;;;;;;;13.40;31.91;96458.75;5033800;28;20025;-30
2023/04/06 08:28:59;;;;;;;5.85;2.50;;;;;;;13.41;32.86;96471.19;5033568;28;20017;-31
2023/04/06 08:31:26;;;;;;;7.35;2.92;;;;;;;13.40;32.09;96461.50;5038375;28;20490;-29
2023/04/06 08:33:51;;;;;;;5.80;2.90;;;;;;;13.49;31.53;96458.81;5042486;28;20025;-30
2023/04/06 08:36:22;;;;;;;4.47;2.20;;;;;;;13.49;31.71;96470.47;5033379;28;20087;-30
2023/04/06 08:38:48;;;;;;;4.05;2.50;;;;;;;13.53;32.36;96476.56;5033671;28;20029;-31
2023/04/06 08:41:14;;;;;;;5.28;2.25;;;;;;;13.50;31.89;96472.00;5033756;28;20017;-29
2023/04/06 08:43:46;;;;;;;4.05;2.05;;;;;;;13.67;31.53;96469.84;5033923;28;20021;-29
2023/04/06 08:46:12;;;;;;;3.58;2.08;;;;;;;13.81;31.19;96468.56;5040972;28;20029;-30
2023/04/06 08:48:42;;;;;;;5.72;2.38;;;;;;;13.69;31.73;96472.91;5043246;28;20013;-30
2023/04/06 08:51:09;;;;;;;5.68;2.88;;;;;;;13.83;31.82;96469.66;5035634;28;20056;-32
2023/04/06 08:53:35;;;;;;;5.28;1.98;;;;;;;13.86;32.05;96470.69;5040963;28;20118;-30
2023/04/06 08:56:01;;;;;;;3.50;1.90;;;;;;;13.94;31.48;96463.78;5033394;28;20485;-29
2023/04/06 08:58:32;;;;;;;4.22;1.73;;;;;;;13.78;31.81;96464.75;5040586;28;20485;-31
2023/04/06 09:00:58;;;;;;;5.63;2.00;;;;;;;13.86;31.88;96468.72;5040521;28;20049;-29
2023/04/06 09:03:26;;;;;;;5.20;2.17;;;;;;;14.15;31.78;96462.97;5039129;28;20409;-30
2023/04/06 09:05:51;;;;;;;4.82;2.10;;;;;;;13.99;31.33;96472.13;5037542;28;20033;-29
2023/04/06 09:08:17;;;;;;;4.38;2.00;;;;;;;14.15;31.59;96470.38;5036595;28;20022;-30
2023/04/06 09:10:42;;;;;;;2.88;1.95;;;;;;;14.13;31.88;96476.28;5044511;28;20354;-31
2023/04/06 09:13:08;;;;;;;3.60;2.15;;;;;;;14.00;32.24;96461.97;5036133;28;20072;-31
2023/04/06 09:15:35;;;;;;;3.65;2.17;;;;;;;14.03;32.21;96467.31;5051295;28;20031;-30
2023/04/06 09:18:00;;;;;;;5.60;2.67;;;;;;;14.26;32.13;96466.03;5044429;28;20021;-30
2023/04/06 09:20:28;;;;;;;5.40;2.67;;;;;;;14.22;32.25;96470.09;5037139;28;20025;-31
2023/04/06 09:22:54;;;;;;;5.03;2.55;;;;;;;14.32;32.35;96469.72;5037239;28;20205;-31
2023/04/06 09:25:32;;;;;;;4.70;2.78;;;;;;;14.14;32.68;96477.81;5036846;28;20067;-30
2023/04/06 09:28:06;;;;;;;6.07;3.70;;;;;;;14.50;32.79;96482.66;5037384;28;20052;-30
2023/04/06 09:30:32;;;;;;;7.13;3.33;;;;;;;14.33;31.87;96481.38;5043157;28;20435;-30
2023/04/06 09:32:59;;;;;;;4.72;3.30;;;;;;;14.20;32.43;96488.91;5038360;28;20029;-30
2023/04/06 09:35:26;;;;;;;6.28;3.78;;;;;;;14.37;32.19;96496.38;5036690;28;20057;-30
2023/04/06 09:37:52;;;;;;;6.35;3.55;;;;;;;14.10;32.03;96493.53;5036706;28;20112;-32
2023/04/06 09:40:18;;;;;;;8.18;3.83;;;;;;;14.30;32.00;96493.94;5036913;28;20029;-29
2023/04/06 09:42:51;;;;;;;4.88;3.28;;;;;;;14.45;31.60;96504.34;5036847;28;20033;-31
2023/04/06 09:45:17;;;;;;;4.63;2.70;;;;;;;14.47;32.75;96504.63;5036629;28;20029;-30
2023/04/06 09:47:45;;;;;;;4.60;2.97;;;;;;;14.68;32.49;96506.53;5043981;28;20030;-30
2023/04/06 09:50:12;;;;;;;5.80;2.80;;;;;;;14.70;32.57;96504.88;5043777;28;20013;-29
2023/04/06 09:52:49;;;;;;;4.88;2.42;;;;;;;14.79;32.63;96500.63;5043987;28;20109;-30
2023/04/06 09:55:25;;;;;;;4.07;2.30;;;;;;;14.44;32.04;96514.50;5036797;28;20377;-30
2023/04/06 09:58:09;;;;;;;4.30;2.47;;;;;;;14.44;32.11;96509.03;5036420;28;20025;-30
2023/04/06 10:00:40;;;;;;;;;;;;;;;14.47;32.29;96513.56;5043774;28;20032;-31
2023/04/06 10:03:20;;;;;;;4.28;2.42;;;;;;;14.57;32.50;96512.41;5042451;28;19916;-30
2023/04/06 10:05:55;;;;;;;5.38;2.42;;;;;;;14.70;31.68;96510.34;5032127;28;20063;-30
2023/04/06 10:08:24;;;;;;;5.35;2.30;;;;;;;14.79;31.76;96500.63;5038994;28;20021;-28
2023/04/06 10:10:51;;;;;;;6.65;2.63;;;;;;;14.78;32.58;96512.75;5050501;28;20029;-31
2023/04/06 10:13:18;;;;;;;5.50;2.30;;;;;;;14.63;31.59;96505.16;5036146;28;20108;-30
2023/04/06 10:15:44;;;;;;;4.25;2.63;;;;;;;15.00;32.72;96502.47;5043051;28;20021;-30
2023/04/06 10:18:10;;;;;;;5.53;2.30;;;;;;;14.71;31.79;96500.91;5036149;28;20052;-30
2023/04/06 10:20:51;;;;;;;4.72;3.00;;;;;;;14.66;31.93;96503.47;5043091;28;20492;-30
2023/04/06 10:23:29;;;;;;;7.15;3.10;;;;;;;14.84;32.34;96489.88;5042356;28;20021;-30
2023/04/06 10:26:00;;;;;;;4.60;2.20;;;;;;;14.91;32.28;96486.84;5036263;28;20053;-30
2023/04/06 10:28:32;;;;;;;3.22;1.85;;;;;;;14.84;31.47;96486.38;5035848;28;20100;-30
2023/04/06 10:31:04;;;;;;;5.95;1.98;;;;;;;14.88;31.54;96481.53;5036383;28;20108;-29
2023/04/06 10:33:30;;;;;;;3.97;1.90;;;;;;;14.90;31.75;96485.34;5040885;28;20123;-30
2023/04/06 10:35:55;;;;;;;5.10;1.80;;;;;;;14.94;31.78;96479.72;5045351;28;20508;-30
2023/04/06 10:38:32;;;;;;;4.43;2.28;;;;;;;14.86;31.51;96492.91;5039020;28;21357;-30
2023/04/06 10:41:07;;;;;;;8.13;2.60;;;;;;;14.76;32.10;96488.63;5037972;28;20049;-29
2023/04/06 10:43:37;;;;;;;4.03;2.22;;;;;;;15.05;32.22;96491.72;5029104;28;20032;-29
2023/04/06 10:46:05;;;;;;;5.95;2.55;;;;;;;15.06;32.08;96484.31;5035574;28;20029;-30
2023/04/06 10:48:41;;;;;;;4.65;2.30;;;;;;;14.81;32.42;96481.84;5028507;28;20017;-29
2023/04/06 10:51:17;;;;;;;8.13;3.10;;;;;;;15.12;32.11;96478.97;5035200;28;20018;-29
2023/04/06 10:53:46;;;;;;;8.68;2.97;;;;;;;14.97;32.39;96474.09;5034286;28;20033;-29
2023/04/06 10:56:14;;;;;;;7.70;3.38;;;;;;;15.02;32.08;96483.69;5041306;28;20021;-30
2023/04/06 10:58:51;;;;;;;8.05;3.50;;;;;;;15.02;31.84;96470.03;5027976;28;20357;-30
2023/04/06 11:01:21;;;;;;;6.13;2.80;;;;;;;15.20;32.27;96474.75;5034982;28;20519;-29
2023/04/06 11:03:49;;;;;;;3.45;2.40;;;;;;;14.97;32.13;96476.84;5028175;28;20108;-30
2023/04/06 11:06:26;;;;;;;3.20;2.30;;;;;;;15.12;32.10;96477.00;5035250;28;20125;-32
2023/04/06 11:08:53;;;;;;;6.30;2.40;;;;;;;15.00;32.04;96473.19;5035713;28;20096;-30
2023/04/06 11:11:20;;;;;;;4.72;2.22;;;;;;;15.10;31.28;96466.53;5049143;28;20017;-30
2023/04/06 11:13:48;;;;;;;4.40;2.38;;;;;;;15.25;31.51;96472.16;5035265;28;20104;-30
2023/04/06 11:16:17;;;;;;;3.35;2.08;;;;;;;15.07;31.22;96474.91;5041716;28;20095;-29
2023/04/06 11:18:51;;;;;;;5.90;3.40;;;;;;;15.21;31.60;96471.53;5029512;28;20033;-30
2023/04/06 11:21:18;;;;;;;4.50;2.28;;;;;;;15.06;31.37;96473.38;5040104;28;20463;-30
2023/04/06 11:23:43;;;;;;;4.28;2.38;;;;;;;15.27;31.92;96477.91;5036388;28;20462;-30
2023/04/06 11:26:13;;;;;;;5.18;3.22;;;;;;;15.16;31.68;96466.69;5041380;28;20029;-29
2023/04/06 11:28:42;;;;;;;3.72;2.42;;;;;;;15.11;31.62;96464.56;5034726;28;20060;-29
2023/04/06 11:31:08;;;;;;;3.80;2.70;;;;;;;15.14;31.44;96468.34;5041758;28;20040;-30